createdAt,value
2022-08-02T00:00:38.739Z,21.22
2022-08-02T00:03:05.860Z,21.16
2022-08-02T00:05:32.883Z,21.07
2022-08-02T00:07:59.939Z,21.01
2022-08-02T00:10:27.049Z,20.89
2022-08-02T00:12:54.073Z,20.78
2022-08-02T00:15:22.463Z,20.87
2022-08-02T00:17:49.731Z,20.77
2022-08-02T00:20:16.976Z,20.73
2022-08-02T00:22:44.024Z,20.86
2022-08-02T00:25:11.131Z,20.82
2022-08-02T00:27:38.259Z,20.92
2022-08-02T00:30:06.076Z,21.06
2022-08-02T00:32:33.122Z,21.08
2022-08-02T00:35:00.079Z,21.17
2022-08-02T00:37:27.174Z,21.21
2022-08-02T00:39:56.001Z,21.34
2022-08-02T00:42:23.058Z,21.41
2022-08-02T00:44:50.227Z,21.42
2022-08-02T00:47:19.543Z,21.47
2022-08-02T00:49:47.509Z,21.53
2022-08-02T00:52:15.076Z,21.57
2022-08-02T00:54:42.396Z,21.66
2022-08-02T00:57:09.672Z,21.68
2022-08-02T00:59:36.872Z,21.70
2022-08-02T01:02:03.998Z,21.69
2022-08-02T01:04:32.408Z,21.66
2022-08-02T01:07:12.787Z,21.61
2022-08-02T01:09:45.455Z,21.59
2022-08-02T01:12:13.353Z,21.66
2022-08-02T01:14:46.583Z,21.59
2022-08-02T01:17:24.278Z,21.50
2022-08-02T01:20:03.411Z,21.37
2022-08-02T01:23:02.251Z,21.35
2022-08-02T01:25:38.925Z,21.27
2022-08-02T01:28:24.210Z,21.28
2022-08-02T01:31:21.427Z,21.17
2022-08-02T01:34:11.795Z,21.21
2022-08-02T01:36:42.987Z,21.12
2022-08-02T01:39:26.931Z,21.06
2022-08-02T01:42:01.310Z,20.98
2022-08-02T01:44:32.146Z,21.04
2022-08-02T01:47:09.449Z,21.01
2022-08-02T01:49:38.733Z,21.00
2022-08-02T01:52:26.201Z,20.96
2022-08-02T01:55:09.841Z,21.03
2022-08-02T01:57:49.743Z,21.00
2022-08-02T02:00:18.783Z,21.05
2022-08-02T02:02:48.280Z,21.02
2022-08-02T02:05:18.878Z,21.05
2022-08-02T02:07:49.621Z,21.01
2022-08-02T02:10:22.198Z,21.02
2022-08-02T02:12:51.489Z,21.05
2022-08-02T02:15:18.999Z,21.12
2022-08-02T02:18:11.530Z,21.02
2022-08-02T02:20:37.252Z,20.96
2022-08-02T02:23:05.120Z,20.89
2022-08-02T02:25:36.471Z,20.88
2022-08-02T02:28:30.376Z,20.87
2022-08-02T02:31:06.575Z,20.81
2022-08-02T02:33:37.754Z,20.81
2022-08-02T02:36:08.077Z,20.65
2022-08-02T02:38:36.683Z,20.53
2022-08-02T02:41:07.037Z,20.50
2022-08-02T02:43:36.341Z,20.43
2022-08-02T02:46:05.437Z,20.41
2022-08-02T02:48:34.282Z,20.37
2022-08-02T02:51:08.268Z,20.34
2022-08-02T03:12:32.114Z,19.77
2022-08-02T03:15:01.800Z,19.92
2022-08-02T03:17:47.390Z,20.05
2022-08-02T03:20:17.768Z,20.12
2022-08-02T03:22:46.698Z,20.21
2022-08-02T03:25:14.869Z,20.25
2022-08-02T03:27:42.414Z,20.26
2022-08-02T03:30:12.296Z,20.36
2022-08-02T03:32:41.238Z,20.43
2022-08-02T03:35:11.253Z,20.40
2022-08-02T03:37:39.225Z,20.40
2022-08-02T03:40:08.740Z,20.38
2022-08-02T03:42:35.784Z,20.26
2022-08-02T03:45:08.492Z,20.28
2022-08-02T03:47:38.814Z,20.37
2022-08-02T03:50:14.581Z,20.46
2022-08-02T03:52:44.338Z,20.58
2022-08-02T03:55:13.463Z,20.63
2022-08-02T03:57:42.554Z,20.75
2022-08-02T04:00:12.254Z,20.92
2022-08-02T04:02:45.417Z,21.20
2022-08-02T04:05:12.443Z,21.51
2022-08-02T04:08:33.693Z,21.69
2022-08-02T04:10:26.866Z,22.02
2022-08-02T04:12:54.888Z,22.06
2022-08-02T04:15:23.828Z,22.20
2022-08-02T04:17:57.532Z,22.40
2022-08-02T04:20:30.205Z,22.64
2022-08-02T04:23:10.125Z,22.78
2022-08-02T04:25:40.442Z,22.83
2022-08-02T04:28:16.580Z,23.03
2022-08-02T04:30:46.931Z,23.08
2022-08-02T04:33:14.629Z,23.47
2022-08-02T04:35:41.847Z,23.70
2022-08-02T04:38:10.676Z,23.77
2022-08-02T04:40:38.745Z,23.88
2022-08-02T04:43:06.269Z,24.16
2022-08-02T04:45:33.649Z,24.35
2022-08-02T04:48:07.657Z,24.16
2022-08-02T04:50:35.430Z,24.12
2022-08-02T04:53:02.798Z,24.10
2022-08-02T04:55:30.271Z,23.91
2022-08-02T04:57:58.413Z,23.33
2022-08-02T05:00:27.716Z,23.02
2022-08-02T05:02:56.971Z,22.59
2022-08-02T05:05:24.076Z,22.53
2022-08-02T05:07:51.084Z,22.31
2022-08-02T05:10:18.471Z,22.38
2022-08-02T05:12:45.539Z,22.31
2022-08-02T05:15:14.363Z,22.54
2022-08-02T05:17:46.869Z,23.19
2022-08-02T05:20:19.277Z,23.99
2022-08-02T05:22:46.772Z,24.74
2022-08-02T05:25:13.977Z,24.32
2022-08-02T05:27:42.406Z,24.06
2022-08-02T05:30:10.168Z,23.81
2022-08-02T05:32:48.130Z,23.81
2022-08-02T05:35:19.925Z,24.42
2022-08-02T05:37:48.467Z,25.89
2022-08-02T05:40:16.495Z,27.08
2022-08-02T05:42:44.604Z,28.22
2022-08-02T05:45:12.234Z,28.21
2022-08-02T05:47:39.979Z,27.24
2022-08-02T05:50:09.342Z,28.74
2022-08-02T05:52:45.650Z,28.64
2022-08-02T05:55:19.304Z,28.83
2022-08-02T05:57:53.732Z,29.37
2022-08-02T06:00:22.253Z,30.23
2022-08-02T06:03:22.732Z,30.46
2022-08-02T06:06:02.221Z,30.66
2022-08-02T06:08:33.988Z,29.88
2022-08-02T06:11:03.691Z,30.02
2022-08-02T06:13:31.512Z,30.95
2022-08-02T06:16:00.245Z,32.08
2022-08-02T06:18:28.865Z,33.39
2022-08-02T06:22:33.473Z,34.93
2022-08-02T06:23:57.380Z,35.99
2022-08-02T06:26:27.982Z,34.89
2022-08-02T06:28:57.473Z,35.14
2022-08-02T06:31:25.142Z,36.66
2022-08-02T06:33:52.438Z,35.79
2022-08-02T06:36:32.146Z,34.71
2022-08-02T06:39:25.907Z,34.43
2022-08-02T06:41:57.980Z,34.68
2022-08-02T06:44:48.704Z,33.93
2022-08-02T06:47:18.191Z,35.50
2022-08-02T06:49:51.377Z,35.85
2022-08-02T06:52:23.231Z,34.75
2022-08-02T06:54:55.086Z,35.12
2022-08-02T06:57:22.187Z,34.20
2022-08-02T06:59:49.194Z,34.07
2022-08-02T07:02:16.332Z,33.91
2022-08-02T07:04:43.486Z,33.91
2022-08-02T07:07:10.437Z,34.09
2022-08-02T07:09:37.593Z,34.35
2022-08-02T07:12:05.377Z,35.51
2022-08-02T07:14:32.438Z,34.24
2022-08-02T07:17:03.433Z,33.94
2022-08-02T07:19:37.653Z,33.50
2022-08-02T07:22:05.970Z,34.97
2022-08-02T07:24:33.033Z,35.42
2022-08-02T07:27:15.683Z,36.61
2022-08-02T07:29:46.661Z,36.14
2022-08-02T07:32:22.846Z,36.37
2022-08-02T07:34:50.965Z,36.82
2022-08-02T07:37:35.926Z,37.59
2022-08-02T07:40:14.896Z,37.92
2022-08-02T07:42:45.393Z,38.19
2022-08-02T07:45:13.722Z,39.72
2022-08-02T07:47:41.643Z,38.77
2022-08-02T07:50:10.388Z,39.39
2022-08-02T07:52:37.518Z,38.22
2022-08-02T07:55:05.853Z,38.25
2022-08-02T07:57:33.127Z,38.63
2022-08-02T08:00:00.469Z,38.40
2022-08-02T08:02:27.563Z,39.01
2022-08-02T08:04:54.899Z,38.18
2022-08-02T08:07:22.064Z,39.54
2022-08-02T08:09:53.616Z,39.54
2022-08-02T08:12:24.391Z,40.03
2022-08-02T08:14:51.320Z,39.93
2022-08-02T08:17:18.717Z,39.15
2022-08-02T08:19:51.079Z,38.96
2022-08-02T08:22:22.620Z,40.79
2022-08-02T08:24:50.085Z,39.34
2022-08-02T08:27:18.392Z,39.75
2022-08-02T08:29:46.284Z,39.78
2022-08-02T08:32:17.259Z,39.59
2022-08-02T08:34:48.561Z,40.08
2022-08-02T08:37:18.306Z,39.91
2022-08-02T08:39:58.258Z,40.98
2022-08-02T08:42:31.182Z,39.90
2022-08-02T08:44:59.658Z,38.26
2022-08-02T08:47:35.498Z,40.95
2022-08-02T08:50:22.858Z,40.03
2022-08-02T08:53:04.759Z,40.46
2022-08-02T08:55:33.968Z,40.66
2022-08-02T08:58:02.495Z,41.65
2022-08-02T09:00:34.374Z,39.66
2022-08-02T09:03:08.704Z,37.27
2022-08-02T09:05:38.190Z,35.64
2022-08-02T09:08:06.329Z,35.04
2022-08-02T09:10:48.065Z,35.85
2022-08-02T09:13:38.839Z,38.79
2022-08-02T09:16:13.052Z,38.69
2022-08-02T09:18:46.458Z,38.87
2022-08-02T09:21:16.019Z,38.59
2022-08-02T09:23:51.728Z,36.27
2022-08-02T09:26:23.688Z,38.04
2022-08-02T09:29:01.855Z,38.44
2022-08-02T09:31:29.065Z,40.08
2022-08-02T09:33:58.043Z,39.12
2022-08-02T09:36:26.729Z,38.40
2022-08-02T09:38:58.038Z,38.89
2022-08-02T09:41:30.252Z,40.39
2022-08-02T09:44:05.433Z,42.17
2022-08-02T09:46:42.941Z,42.46
2022-08-02T09:49:13.375Z,40.00
2022-08-02T09:51:47.577Z,39.55
2022-08-02T09:54:18.885Z,39.68
2022-08-02T09:56:51.183Z,36.60
2022-08-02T09:59:20.095Z,37.74
2022-08-02T10:01:51.595Z,39.32
2022-08-02T10:04:34.286Z,36.68
2022-08-02T10:07:21.565Z,37.50
2022-08-02T10:09:50.466Z,40.07
2022-08-02T10:12:17.969Z,41.37
2022-08-02T10:14:45.893Z,38.99
2022-08-02T10:17:13.601Z,36.41
2022-08-02T10:20:02.911Z,37.97
2022-08-02T10:22:28.427Z,39.86
2022-08-02T10:24:55.478Z,39.38
2022-08-02T10:27:25.912Z,37.20
2022-08-02T10:29:57.814Z,38.27
2022-08-02T10:32:31.630Z,40.50
2022-08-02T10:35:19.124Z,40.76
2022-08-02T10:37:56.258Z,38.74
2022-08-02T10:40:23.735Z,36.91
2022-08-02T10:43:01.962Z,36.87
2022-08-02T10:45:29.543Z,37.48
2022-08-02T10:47:59.596Z,35.98
2022-08-02T10:50:46.029Z,38.31
2022-08-02T10:53:42.614Z,38.83
2022-08-02T10:56:09.621Z,40.22
2022-08-02T10:58:36.631Z,39.64
2022-08-02T11:01:06.300Z,36.33
2022-08-02T11:03:39.398Z,37.18
2022-08-02T11:06:08.215Z,36.03
2022-08-02T11:08:35.496Z,34.53
2022-08-02T11:11:18.275Z,33.28
2022-08-02T11:14:08.906Z,35.62
2022-08-02T11:16:57.235Z,38.45
2022-08-02T11:19:24.814Z,38.62
2022-08-02T11:22:16.334Z,39.09
2022-08-02T11:24:47.440Z,35.78
2022-08-02T11:27:21.832Z,37.09
2022-08-02T11:29:49.857Z,37.75
2022-08-02T11:32:18.826Z,38.90
2022-08-02T11:34:52.359Z,35.11
2022-08-02T11:37:32.932Z,32.58
2022-08-02T11:40:00.107Z,31.96
2022-08-02T11:42:34.841Z,30.03
2022-08-02T11:45:02.583Z,28.79
2022-08-02T11:47:31.580Z,28.31
2022-08-02T11:50:09.216Z,28.48
2022-08-02T11:52:37.085Z,28.98
2022-08-02T11:55:06.260Z,28.95
2022-08-02T11:58:02.982Z,28.98
2022-08-02T12:00:22.315Z,28.96
2022-08-02T12:02:54.275Z,29.03
2022-08-02T12:05:44.731Z,29.09
2022-08-02T12:08:10.878Z,28.72
2022-08-02T12:10:47.663Z,28.28
2022-08-02T12:13:14.857Z,28.02
2022-08-02T12:15:47.088Z,28.28
2022-08-02T12:18:50.914Z,28.72
2022-08-02T12:21:23.725Z,29.25
2022-08-02T12:24:00.662Z,29.10
2022-08-02T12:26:29.407Z,29.02
2022-08-02T12:28:58.270Z,28.93
2022-08-02T12:31:56.884Z,29.00
2022-08-02T12:34:32.097Z,29.06
2022-08-02T12:37:10.573Z,29.17
2022-08-02T12:39:46.013Z,29.53
2022-08-02T12:42:16.146Z,29.55
2022-08-02T12:44:58.991Z,29.48
2022-08-02T12:47:31.294Z,29.18
2022-08-02T12:50:21.137Z,28.73
2022-08-02T12:52:49.576Z,28.48
2022-08-02T12:55:16.613Z,28.43
2022-08-02T12:57:53.839Z,28.40
2022-08-02T13:00:29.701Z,28.75
2022-08-02T13:02:57.998Z,28.91
2022-08-02T13:05:25.791Z,28.83
2022-08-02T13:07:53.186Z,28.78
2022-08-02T13:10:21.713Z,28.83
2022-08-02T13:12:48.661Z,28.92
2022-08-02T13:15:49.397Z,28.92
2022-08-02T13:18:03.281Z,29.13
2022-08-02T13:20:30.467Z,29.26
2022-08-02T13:23:03.893Z,29.42
2022-08-02T13:25:31.358Z,29.04
2022-08-02T13:27:58.369Z,29.16
2022-08-02T13:30:25.320Z,29.22
2022-08-02T13:32:52.491Z,29.10
2022-08-02T13:35:19.839Z,29.08
2022-08-02T13:37:47.879Z,29.13
2022-08-02T13:40:22.734Z,29.27
2022-08-02T13:42:50.190Z,29.50
2022-08-02T13:45:17.240Z,29.50
2022-08-02T13:48:03.922Z,29.48
2022-08-02T13:50:32.576Z,29.24
2022-08-02T13:52:59.546Z,29.23
2022-08-02T13:55:26.644Z,28.99
2022-08-02T13:57:54.308Z,29.01
2022-08-02T14:00:34.840Z,29.13
2022-08-02T14:03:07.336Z,29.23
2022-08-02T14:05:47.677Z,29.25
2022-08-02T14:08:17.634Z,29.36
2022-08-02T14:10:45.920Z,29.23
2022-08-02T14:13:12.915Z,29.21
2022-08-02T14:15:39.999Z,29.20
2022-08-02T14:18:06.926Z,29.01
2022-08-02T14:20:33.918Z,28.82
2022-08-02T14:23:00.781Z,28.66
2022-08-02T14:25:27.701Z,28.73
2022-08-02T14:27:54.674Z,28.61
2022-08-02T14:30:23.356Z,28.56
2022-08-02T14:32:50.799Z,28.56
2022-08-02T14:35:17.826Z,28.50
2022-08-02T14:37:44.780Z,28.58
2022-08-02T14:40:28.106Z,28.62
2022-08-02T14:42:59.697Z,28.66
2022-08-02T14:45:41.107Z,28.63
2022-08-02T14:48:10.094Z,28.95
2022-08-02T14:50:36.950Z,29.05
2022-08-02T14:53:03.933Z,28.95
2022-08-02T14:55:30.874Z,28.96
2022-08-02T15:14:10.047Z,25.48
2022-08-02T15:16:55.621Z,25.40
2022-08-02T15:19:23.291Z,25.31
2022-08-02T15:21:54.800Z,25.13
2022-08-02T15:24:24.413Z,25.31
2022-08-02T15:26:51.869Z,24.98
2022-08-02T15:29:19.455Z,25.05
2022-08-02T15:31:47.066Z,25.13
2022-08-02T15:34:14.238Z,25.25
2022-08-02T15:36:45.822Z,25.08
2022-08-02T15:39:12.912Z,25.01
2022-08-02T15:41:39.791Z,25.07
2022-08-02T15:44:09.233Z,25.00
2022-08-02T15:46:38.214Z,25.07
2022-08-02T15:49:06.185Z,25.07
2022-08-02T15:51:33.201Z,25.11
2022-08-02T15:54:00.128Z,25.10
2022-08-02T15:56:27.130Z,25.05
2022-08-02T15:58:58.684Z,25.09
2022-08-02T16:01:37.374Z,25.04
2022-08-02T16:04:07.009Z,24.88
2022-08-02T16:06:37.237Z,24.91
2022-08-02T16:09:04.533Z,24.70
2022-08-02T16:11:31.502Z,24.69
2022-08-02T16:13:59.182Z,24.71
2022-08-02T16:16:29.394Z,24.67
2022-08-02T16:18:56.997Z,24.63
2022-08-02T16:21:24.889Z,24.54
2022-08-02T16:23:58.616Z,24.48
2022-08-02T16:26:34.167Z,24.41
2022-08-02T16:29:02.981Z,24.36
2022-08-02T16:31:30.282Z,24.38
2022-08-02T16:33:57.692Z,24.45
2022-08-02T16:36:26.258Z,24.62
2022-08-02T16:38:54.533Z,24.55
2022-08-02T16:41:22.145Z,24.60
2022-08-02T16:43:49.116Z,24.51
2022-08-02T16:46:16.014Z,24.46
2022-08-02T16:48:50.911Z,24.47
2022-08-02T16:51:19.262Z,24.50
2022-08-02T16:53:59.969Z,24.38
2022-08-02T16:56:28.956Z,24.43
2022-08-02T16:58:59.560Z,24.36
2022-08-02T17:02:02.082Z,24.25
2022-08-02T17:04:15.864Z,24.20
2022-08-02T17:06:47.310Z,24.19
2022-08-02T17:10:04.348Z,24.17
2022-08-02T17:12:09.927Z,24.14
2022-08-02T17:14:41.912Z,24.13
2022-08-02T17:17:21.561Z,24.01
2022-08-02T17:19:48.808Z,24.06
2022-08-02T17:22:17.761Z,24.08
2022-08-02T17:24:44.862Z,24.08
2022-08-02T17:27:17.311Z,23.97
2022-08-02T17:29:47.108Z,24.01
2022-08-02T17:32:18.150Z,24.05
2022-08-02T17:34:56.686Z,24.01
2022-08-02T17:37:28.754Z,23.95
2022-08-02T17:39:57.058Z,23.97
2022-08-02T17:42:25.042Z,23.95
2022-08-02T17:44:54.202Z,23.96
2022-08-02T17:47:22.494Z,23.94
2022-08-02T17:49:50.396Z,23.94
2022-08-02T17:52:50.743Z,23.89
2022-08-02T17:55:10.926Z,23.91
2022-08-02T17:57:57.133Z,23.92
2022-08-02T18:00:26.809Z,23.99
2022-08-02T18:02:55.048Z,23.91
2022-08-02T18:05:23.290Z,23.87
2022-08-02T18:08:06.628Z,23.83
2022-08-02T18:10:34.439Z,23.93
2022-08-02T18:13:03.611Z,23.86
2022-08-02T18:15:32.599Z,23.89
2022-08-02T18:18:00.644Z,23.93
2022-08-02T18:20:27.605Z,23.92
2022-08-02T18:22:58.523Z,23.87
2022-08-02T18:25:36.929Z,23.91
2022-08-02T18:28:13.201Z,23.94
2022-08-02T18:30:40.707Z,24.00
2022-08-02T18:33:56.152Z,24.04
2022-08-02T18:35:55.826Z,24.09
2022-08-02T18:38:26.843Z,24.15
2022-08-02T18:41:12.851Z,24.16
2022-08-02T18:43:43.661Z,24.19
2022-08-02T18:46:15.901Z,24.23
2022-08-02T18:48:46.598Z,24.26
2022-08-02T18:51:16.056Z,24.26
2022-08-02T18:53:46.732Z,24.25
2022-08-02T18:56:20.327Z,24.24
2022-08-02T18:58:56.053Z,24.27
2022-08-02T19:01:33.848Z,24.19
2022-08-02T19:04:04.445Z,24.20
2022-08-02T19:06:32.057Z,24.16
2022-08-02T19:11:48.200Z,24.12
2022-08-02T19:14:27.132Z,24.09
2022-08-02T19:16:59.607Z,24.08
2022-08-02T19:19:28.642Z,24.10
2022-08-02T19:22:16.364Z,24.02
2022-08-02T19:24:45.879Z,24.01
2022-08-02T19:27:14.771Z,24.02
2022-08-02T19:29:48.894Z,24.05
2022-08-02T19:32:41.531Z,24.02
2022-08-02T19:35:19.748Z,24.07
2022-08-02T19:37:52.533Z,23.97
2022-08-02T19:40:24.151Z,23.81
2022-08-02T19:44:27.116Z,23.80
2022-08-02T19:45:49.766Z,23.78
2022-08-02T19:48:23.714Z,23.74
2022-08-02T19:50:56.699Z,23.73
2022-08-02T19:53:29.423Z,23.73
2022-08-02T19:56:20.289Z,23.69
2022-08-02T19:58:51.461Z,23.66
2022-08-02T20:01:23.552Z,23.65
2022-08-02T20:03:55.428Z,23.54
2022-08-02T20:06:29.351Z,23.52
2022-08-02T20:08:59.387Z,23.49
2022-08-02T20:11:34.700Z,23.47
2022-08-02T20:14:04.323Z,23.43
2022-08-02T20:16:32.709Z,23.43
2022-08-02T20:19:01.030Z,23.39
2022-08-02T20:21:34.526Z,23.39
2022-08-02T20:24:05.252Z,23.39
2022-08-02T20:26:32.278Z,23.32
2022-08-02T20:29:02.340Z,23.34
2022-08-02T20:31:30.322Z,23.31
2022-08-02T20:33:57.578Z,23.31
2022-08-02T20:36:28.119Z,23.24
2022-08-02T20:38:55.825Z,23.16
2022-08-02T20:41:23.601Z,23.04
2022-08-02T20:44:04.432Z,22.90
2022-08-02T20:46:43.415Z,22.83
2022-08-02T20:49:23.106Z,22.92
2022-08-02T20:51:52.741Z,22.90
2022-08-02T20:54:21.579Z,22.91
2022-08-02T20:56:50.460Z,22.90
2022-08-02T20:59:17.883Z,22.90
2022-08-02T21:01:56.667Z,22.91
2022-08-02T21:04:24.773Z,22.90
2022-08-02T21:06:52.235Z,22.90
2022-08-02T21:09:19.134Z,22.88
2022-08-02T21:12:00.047Z,22.83
2022-08-02T21:14:27.322Z,22.76
2022-08-02T21:16:54.241Z,22.68
2022-08-02T21:19:21.703Z,22.72
2022-08-02T21:21:48.640Z,22.72
2022-08-02T21:24:16.352Z,22.72
2022-08-02T21:26:47.283Z,22.74
2022-08-02T21:29:15.786Z,22.74
2022-08-02T21:31:43.364Z,22.45
2022-08-02T21:34:22.403Z,22.44
2022-08-02T21:36:54.539Z,22.36
2022-08-02T21:39:21.581Z,22.34
2022-08-02T21:41:49.407Z,22.27
2022-08-02T21:44:20.787Z,22.30
2022-08-02T21:46:50.036Z,22.34
2022-08-02T21:49:27.271Z,22.30
2022-08-02T21:52:09.172Z,22.18
2022-08-02T21:54:39.769Z,22.20
2022-08-02T21:57:15.489Z,22.16
2022-08-02T21:59:47.743Z,22.05
2022-08-02T22:02:18.516Z,21.97
2022-08-02T22:04:47.340Z,21.96
2022-08-02T22:07:23.943Z,21.92
2022-08-02T22:09:52.637Z,21.87
2022-08-02T22:12:21.980Z,21.82
2022-08-02T22:14:55.472Z,21.77
2022-08-02T22:17:52.574Z,21.76
2022-08-02T22:20:12.543Z,21.82
2022-08-02T22:22:58.589Z,21.84
2022-08-02T22:25:36.002Z,21.87
2022-08-02T22:28:37.246Z,21.88
2022-08-02T22:30:52.956Z,21.82
2022-08-02T22:33:42.024Z,21.79
2022-08-02T22:36:13.837Z,21.78
2022-08-02T22:38:44.441Z,21.80
2022-08-02T22:41:12.381Z,21.81
2022-08-02T22:43:39.629Z,21.84
2022-08-02T22:46:06.839Z,21.79
2022-08-02T22:48:36.090Z,21.80
2022-08-02T22:51:07.236Z,21.74
2022-08-02T22:53:36.262Z,21.65
2022-08-02T22:56:04.094Z,21.68
2022-08-02T22:58:31.862Z,21.79
2022-08-02T22:58:59.955Z,24.16
2022-08-02T23:00:58.816Z,21.75
2022-08-02T23:03:25.697Z,21.70
2022-08-02T23:05:52.547Z,21.76
2022-08-02T23:08:19.593Z,21.69
2022-08-02T23:10:46.575Z,21.79
2022-08-02T23:13:13.538Z,21.83
2022-08-02T23:15:59.629Z,21.69
2022-08-02T23:18:45.155Z,21.74
2022-08-02T23:21:12.099Z,21.63
2022-08-02T23:23:38.890Z,21.53
2022-08-02T23:26:05.995Z,21.54
2022-08-02T23:28:32.784Z,21.50
2022-08-02T23:30:59.641Z,21.47
2022-08-02T23:33:26.424Z,21.37
2022-08-02T23:35:53.318Z,21.34
2022-08-02T23:38:20.209Z,21.30
2022-08-02T23:40:47.067Z,21.26
2022-08-02T23:43:15.361Z,21.21
2022-08-02T23:45:43.044Z,21.09
2022-08-02T23:48:09.892Z,21.06
2022-08-02T23:50:36.879Z,20.97
2022-08-02T23:53:03.997Z,20.96
2022-08-02T23:55:30.877Z,20.92
2022-08-02T23:57:57.727Z,20.86
